Time;durP1;ratioP1;P1;durP2;ratioP2;P2;SDS_P1;SDS_P2;PMS_P1;PMS_P2;Temp;Humidity;BMP_temperature;BMP_pressure;BME280_temperature;BME280_humidity;BME280_pressure;Samples;Min_cycle;Max_cycle;Signal;HPM_P1;HPM_P2
2022/01/09 00:02:00;;;;;;;2.20;0.63;;;27.00;47.50;;;;;;5067305;28;20281;-48
2022/01/09 00:04:30;;;;;;;0.77;0.40;;;27.10;47.50;;;;;;5066754;28;20215;-47
2022/01/09 00:07:01;;;;;;;3.10;0.90;;;27.10;47.40;;;;;;5070832;28;20282;-46
2022/01/09 00:09:32;;;;;;;0.75;0.52;;;27.20;47.40;;;;;;5068778;28;20289;-41
2022/01/09 00:12:04;;;;;;;1.35;0.63;;;27.10;47.30;;;;;;5069431;28;20201;-43
2022/01/09 00:14:34;;;;;;;0.80;0.70;;;27.20;47.30;;;;;;5068567;28;20727;-47
2022/01/09 00:17:05;;;;;;;1.80;0.80;;;27.20;47.20;;;;;;5067280;28;20641;-40
2022/01/09 00:19:35;;;;;;;0.90;0.43;;;27.30;47.20;;;;;;5058906;28;20790;-42
2022/01/09 00:22:06;;;;;;;1.73;0.60;;;27.30;47.00;;;;;;5054704;28;20287;-45
2022/01/09 00:24:37;;;;;;;0.75;0.50;;;27.40;47.00;;;;;;5057766;28;20230;-39
2022/01/09 00:27:09;;;;;;;0.63;0.43;;;27.40;47.00;;;;;;5066922;28;20234;-45
2022/01/09 00:29:40;;;;;;;0.70;0.45;;;27.40;47.00;;;;;;5054095;28;20867;-41
2022/01/09 00:32:10;;;;;;;1.02;0.57;;;27.50;47.10;;;;;;5068319;28;20804;-38
2022/01/09 00:34:41;;;;;;;0.63;0.60;;;27.50;47.10;;;;;;5054038;28;20283;-46
2022/01/09 00:37:11;;;;;;;1.15;0.60;;;27.50;47.10;;;;;;5066540;28;20314;-39
2022/01/09 00:39:42;;;;;;;0.50;0.50;;;27.50;47.10;;;;;;5066292;28;20203;-47
2022/01/09 00:42:14;;;;;;;0.98;0.50;;;27.50;47.00;;;;;;5059150;28;20495;-49
2022/01/09 00:44:45;;;;;;;1.55;0.60;;;27.60;47.00;;;;;;5058723;28;20294;-40
2022/01/09 00:47:15;;;;;;;0.85;0.55;;;27.60;47.00;;;;;;5067013;28;20194;-40
2022/01/09 00:49:46;;;;;;;0.70;0.57;;;27.60;47.00;;;;;;5067194;28;20621;-40
2022/01/09 00:52:16;;;;;;;1.23;0.63;;;27.60;46.90;;;;;;5057477;28;20301;-40
2022/01/09 00:54:47;;;;;;;1.10;0.57;;;27.70;46.80;;;;;;5069236;28;20195;-37
2022/01/09 00:57:19;;;;;;;0.90;0.50;;;27.70;46.70;;;;;;5052138;28;20286;-46
2022/01/09 00:59:50;;;;;;;0.60;0.50;;;27.70;46.60;;;;;;5053793;28;20204;-50
2022/01/09 01:02:21;;;;;;;1.08;0.50;;;27.70;46.60;;;;;;5055318;28;20636;-46
2022/01/09 01:04:51;;;;;;;0.70;0.50;;;27.80;46.50;;;;;;5054502;28;20211;-42
2022/01/09 01:07:23;;;;;;;0.90;0.55;;;27.80;46.40;;;;;;5056762;28;20200;-39
2022/01/09 01:09:53;;;;;;;1.25;0.60;;;27.80;46.30;;;;;;5062900;28;20196;-43
2022/01/09 01:12:26;;;;;;;0.82;0.43;;;27.80;46.20;;;;;;5054120;28;20245;-41
2022/01/09 01:14:57;;;;;;;0.90;0.50;;;27.90;46.10;;;;;;5068778;28;20825;-41
2022/01/09 01:17:28;;;;;;;1.27;0.50;;;27.90;46.00;;;;;;5050325;28;20249;-44
2022/01/09 01:19:58;;;;;;;1.52;0.60;;;27.90;46.10;;;;;;5067973;28;20678;-44
2022/01/09 01:22:30;;;;;;;0.50;0.50;;;27.90;46.10;;;;;;5053345;28;20318;-39
2022/01/09 01:25:01;;;;;;;1.30;0.60;;;28.00;46.20;;;;;;5052703;28;20291;-45
2022/01/09 01:27:34;;;;;;;1.00;0.50;;;28.00;46.30;;;;;;5053142;28;20200;-38
2022/01/09 01:30:05;;;;;;;0.95;0.38;;;28.00;46.30;;;;;;5052918;28;20203;-43
2022/01/09 01:32:35;;;;;;;0.60;0.40;;;28.00;46.20;;;;;;5059077;28;20226;-42
2022/01/09 01:35:06;;;;;;;0.70;0.45;;;28.00;46.20;;;;;;5065871;28;20199;-45
2022/01/09 01:37:38;;;;;;;0.43;0.40;;;28.10;46.30;;;;;;5052185;28;20222;-38
2022/01/09 01:40:12;;;;;;;0.60;0.55;;;28.10;46.20;;;;;;5067437;28;20217;-39
2022/01/09 01:42:44;;;;;;;0.77;0.50;;;28.10;46.00;;;;;;5051833;28;20212;-43
2022/01/09 01:45:15;;;;;;;0.73;0.40;;;28.20;46.10;;;;;;5052659;28;20203;-40
2022/01/09 01:47:49;;;;;;;1.02;0.60;;;28.20;46.00;;;;;;5053523;28;20199;-41
2022/01/09 01:50:20;;;;;;;0.52;0.40;;;28.20;45.90;;;;;;5062400;28;20230;-40
2022/01/09 01:52:54;;;;;;;0.88;0.60;;;28.20;45.80;;;;;;5055785;28;20680;-43
2022/01/09 01:55:24;;;;;;;1.55;0.63;;;28.30;45.60;;;;;;5057622;28;20702;-43
2022/01/09 01:57:57;;;;;;;0.30;0.30;;;28.30;45.70;;;;;;5066083;28;20671;-41
2022/01/09 02:00:28;;;;;;;0.60;0.45;;;28.30;45.60;;;;;;5065319;28;20249;-43
2022/01/09 02:03:01;;;;;;;0.88;0.50;;;28.40;45.50;;;;;;5067914;28;20219;-40
2022/01/09 02:05:32;;;;;;;0.95;0.47;;;28.40;45.40;;;;;;5066970;28;20256;-40
2022/01/09 02:08:03;;;;;;;0.70;0.50;;;28.40;45.30;;;;;;5068026;28;20566;-45
2022/01/09 02:10:34;;;;;;;0.45;0.45;;;28.40;45.30;;;;;;5057271;28;20195;-41
2022/01/09 02:13:06;;;;;;;0.60;0.40;;;28.50;45.30;;;;;;5062527;28;20217;-37
2022/01/09 02:15:42;;;;;;;1.38;0.50;;;28.50;45.30;;;;;;5066301;28;20286;-42
2022/01/09 02:18:14;;;;;;;1.00;0.40;;;28.50;45.40;;;;;;5065788;28;20222;-51
2022/01/09 02:20:47;;;;;;;0.80;0.50;;;28.50;45.50;;;;;;5063083;28;20199;-40
2022/01/09 02:23:19;;;;;;;0.57;0.40;;;28.60;45.80;;;;;;5066153;28;20214;-48
2022/01/09 02:25:50;;;;;;;1.83;0.60;;;28.60;45.80;;;;;;5068409;28;20282;-39
2022/01/09 02:28:21;;;;;;;1.35;0.50;;;28.60;45.70;;;;;;5067243;28;20711;-47
2022/01/09 02:30:52;;;;;;;0.80;0.40;;;28.60;45.70;;;;;;5050785;28;20254;-39
2022/01/09 02:33:22;;;;;;;0.70;0.40;;;28.60;45.60;;;;;;5066370;28;20262;-42
2022/01/09 02:35:56;;;;;;;0.73;0.40;;;28.60;45.40;;;;;;5056221;28;20284;-38
2022/01/09 02:38:26;;;;;;;1.27;0.50;;;28.70;45.30;;;;;;5056194;28;20299;-46
2022/01/09 02:40:57;;;;;;;1.27;0.50;;;28.70;45.20;;;;;;5062537;28;20254;-45
2022/01/09 02:43:28;;;;;;;1.15;0.52;;;28.70;45.20;;;;;;5064471;28;20269;-44
2022/01/09 02:46:07;;;;;;;1.10;0.40;;;28.80;45.80;;;;;;5056751;28;20281;-43
2022/01/09 02:48:39;;;;;;;0.50;0.45;;;28.80;45.20;;;;;;5069091;28;20305;-44
2022/01/09 02:51:14;;;;;;;0.40;0.40;;;28.80;45.10;;;;;;5070531;28;20261;-50
2022/01/09 02:53:48;;;;;;;0.40;0.40;;;28.90;44.80;;;;;;5070043;28;20343;-44
2022/01/09 02:56:19;;;;;;;0.90;0.38;;;28.90;44.70;;;;;;5070425;28;20193;-41
2022/01/09 02:58:50;;;;;;;0.73;0.55;;;28.90;44.80;;;;;;5057227;28;20258;-40
2022/01/09 03:01:20;;;;;;;0.70;0.47;;;28.90;44.90;;;;;;5066150;28;21259;-42
2022/01/09 03:03:51;;;;;;;1.95;0.57;;;29.00;45.10;;;;;;5061164;28;20262;-37
2022/01/09 03:06:23;;;;;;;0.57;0.40;;;29.00;45.10;;;;;;5060472;28;20230;-43
2022/01/09 03:08:54;;;;;;;0.50;0.50;;;29.00;45.30;;;;;;5066009;28;20566;-40
2022/01/09 03:11:25;;;;;;;1.35;0.50;;;29.00;45.10;;;;;;5056506;28;20566;-38
2022/01/09 03:13:55;;;;;;;0.52;0.40;;;29.10;45.20;;;;;;5070093;28;20242;-38
2022/01/09 03:16:26;;;;;;;0.68;0.50;;;29.10;45.10;;;;;;5067319;28;20268;-43
2022/01/09 03:18:56;;;;;;;0.85;0.50;;;29.10;45.10;;;;;;5054266;28;20314;-38
2022/01/09 03:21:29;;;;;;;0.50;0.40;;;29.20;45.20;;;;;;5061243;28;20249;-39
2022/01/09 03:23:59;;;;;;;1.02;0.50;;;29.20;44.90;;;;;;5056883;28;20251;-37
2022/01/09 03:26:30;;;;;;;1.05;0.50;;;29.20;44.90;;;;;;5064943;28;20237;-37
2022/01/09 03:29:00;;;;;;;0.68;0.40;;;29.20;44.90;;;;;;5068344;28;20281;-37
2022/01/09 03:31:31;;;;;;;0.50;0.40;;;29.30;44.90;;;;;;5067978;28;20198;-39
2022/01/09 03:34:01;;;;;;;0.93;0.60;;;29.40;44.90;;;;;;5069648;28;20257;-38
2022/01/09 03:36:33;;;;;;;0.50;0.30;;;29.40;45.50;;;;;;5068466;28;20286;-43
2022/01/09 03:39:04;;;;;;;0.60;0.40;;;29.40;44.90;;;;;;5050890;28;20310;-47
2022/01/09 03:41:35;;;;;;;0.63;0.40;;;29.40;44.90;;;;;;5054264;28;20238;-39
2022/01/09 03:44:05;;;;;;;1.02;0.70;;;29.50;44.60;;;;;;5067644;28;20819;-37
2022/01/09 03:46:36;;;;;;;0.70;0.40;;;29.50;44.30;;;;;;5056975;28;20282;-43
2022/01/09 03:49:06;;;;;;;2.03;0.60;;;29.60;44.30;;;;;;5062057;28;20277;-43
2022/01/09 03:51:39;;;;;;;0.80;0.60;;;29.60;44.20;;;;;;5068645;28;20278;-42
2022/01/09 03:54:09;;;;;;;0.65;0.60;;;29.60;44.20;;;;;;5065774;28;20591;-37
2022/01/09 03:56:40;;;;;;;1.00;0.60;;;29.60;44.30;;;;;;5057739;28;20272;-38
2022/01/09 03:59:10;;;;;;;1.48;0.50;;;29.60;44.30;;;;;;5070311;28;20301;-37
2022/01/09 04:01:41;;;;;;;0.98;0.50;;;29.70;44.30;;;;;;5068546;28;20286;-37
2022/01/09 04:04:11;;;;;;;3.33;0.40;;;29.70;44.10;;;;;;5068373;28;20298;-37
2022/01/09 04:06:46;;;;;;;3.22;0.50;;;29.70;44.30;;;;;;5055233;28;20215;-37
2022/01/09 04:09:26;;;;;;;0.50;0.43;;;29.70;44.40;;;;;;5064644;28;20195;-36
2022/01/09 04:12:03;;;;;;;0.75;0.40;;;29.70;44.60;;;;;;5055144;28;20718;-37
2022/01/09 04:14:35;;;;;;;0.50;0.47;;;29.80;45.50;;;;;;5062790;28;20718;-37
2022/01/09 04:17:08;;;;;;;0.60;0.40;;;29.80;44.90;;;;;;5066823;28;20277;-37
2022/01/09 04:19:38;;;;;;;1.38;0.60;;;29.80;44.80;;;;;;5065415;28;20233;-38
2022/01/09 04:22:11;;;;;;;1.08;0.40;;;29.80;44.70;;;;;;5059831;28;20286;-37
2022/01/09 04:24:41;;;;;;;0.93;0.30;;;29.80;44.70;;;;;;5052703;28;20697;-37
2022/01/09 04:27:13;;;;;;;0.40;0.40;;;29.80;44.70;;;;;;5069284;28;20286;-37
2022/01/09 04:29:44;;;;;;;0.68;0.40;;;29.90;44.70;;;;;;5068836;28;20806;-37
2022/01/09 04:32:14;;;;;;;0.50;0.30;;;29.80;44.70;;;;;;5053810;28;20280;-37
2022/01/09 04:34:45;;;;;;;0.80;0.50;;;29.90;44.60;;;;;;5065280;28;20234;-37
2022/01/09 04:37:17;;;;;;;0.98;0.40;;;29.90;44.60;;;;;;5060118;28;20606;-37
2022/01/09 04:39:49;;;;;;;0.80;0.40;;;29.90;44.40;;;;;;5060005;28;20222;-37
2022/01/09 04:42:24;;;;;;;0.80;0.43;;;29.90;44.40;;;;;;5064629;28;20219;-37
2022/01/09 04:44:54;;;;;;;1.38;0.40;;;29.90;44.30;;;;;;5053770;28;20220;-38
2022/01/09 04:47:26;;;;;;;0.40;0.40;;;29.90;44.10;;;;;;5052336;28;20199;-38
2022/01/09 04:49:58;;;;;;;0.73;0.43;;;29.90;44.10;;;;;;5067615;28;20283;-44
2022/01/09 04:52:33;;;;;;;0.93;0.40;;;29.90;44.70;;;;;;5069403;28;20215;-41
2022/01/09 04:55:04;;;;;;;0.90;0.47;;;29.90;44.00;;;;;;5068081;28;20212;-38
2022/01/09 04:57:35;;;;;;;0.60;0.30;;;29.90;44.60;;;;;;5068150;28;20286;-38
2022/01/09 05:00:07;;;;;;;0.50;0.40;;;29.80;44.00;;;;;;5066634;28;20313;-37
2022/01/09 05:02:38;;;;;;;0.45;0.45;;;29.80;44.60;;;;;;5067039;28;20305;-42
2022/01/09 05:05:10;;;;;;;0.80;0.38;;;29.80;43.90;;;;;;5062914;28;20723;-49
2022/01/09 05:07:43;;;;;;;0.77;0.50;;;29.80;44.00;;;;;;5061862;28;20206;-40
2022/01/09 05:10:15;;;;;;;0.70;0.47;;;29.80;44.30;;;;;;5066091;28;20306;-37
2022/01/09 05:12:45;;;;;;;0.40;0.30;;;29.80;44.40;;;;;;5065454;28;20246;-47
2022/01/09 05:15:18;;;;;;;0.68;0.35;;;29.80;44.40;;;;;;5067316;28;20282;-37
2022/01/09 05:17:50;;;;;;;1.45;0.45;;;29.80;44.40;;;;;;5066467;28;20226;-37
2022/01/09 05:20:21;;;;;;;0.50;0.50;;;29.80;44.50;;;;;;5065190;28;20699;-43
2022/01/09 05:22:54;;;;;;;0.88;0.43;;;29.80;44.50;;;;;;5066050;28;20301;-37
2022/01/09 05:25:24;;;;;;;0.38;0.20;;;29.80;44.60;;;;;;5059749;28;20195;-41
2022/01/09 05:27:55;;;;;;;0.55;0.50;;;29.80;44.40;;;;;;5061371;28;20290;-44
2022/01/09 05:30:25;;;;;;;0.77;0.40;;;29.80;44.60;;;;;;5064673;28;20203;-37
2022/01/09 05:32:56;;;;;;;1.17;0.40;;;29.80;44.20;;;;;;5067286;28;20298;-37
2022/01/09 05:35:27;;;;;;;0.75;0.35;;;29.80;44.00;;;;;;5066415;28;20191;-37
2022/01/09 05:37:59;;;;;;;0.52;0.40;;;29.80;43.80;;;;;;5064558;28;20667;-37
2022/01/09 05:40:30;;;;;;;1.58;0.50;;;29.70;43.60;;;;;;5067121;28;20322;-39
2022/01/09 05:43:00;;;;;;;1.17;0.50;;;29.70;43.60;;;;;;5066707;28;20297;-38
2022/01/09 05:45:31;;;;;;;1.65;0.50;;;29.70;43.00;;;;;;5067173;28;20281;-38
2022/01/09 05:48:02;;;;;;;1.05;0.70;;;29.70;42.80;;;;;;5064063;28;20294;-38
2022/01/09 05:50:32;;;;;;;2.25;0.60;;;29.60;42.70;;;;;;5066735;28;20199;-38
2022/01/09 05:53:05;;;;;;;1.75;0.45;;;29.60;43.00;;;;;;5058456;28;20305;-38
2022/01/09 05:55:35;;;;;;;0.82;0.50;;;29.60;43.10;;;;;;5066813;28;20306;-42
2022/01/09 05:58:07;;;;;;;1.10;0.47;;;29.60;43.40;;;;;;5066780;28;20293;-43
2022/01/09 06:00:38;;;;;;;0.90;0.47;;;29.50;43.50;;;;;;5066759;28;20309;-45
2022/01/09 06:03:08;;;;;;;2.25;0.50;;;29.50;43.60;;;;;;5066326;28;20297;-41
2022/01/09 06:05:40;;;;;;;1.92;0.40;;;29.50;43.70;;;;;;5064050;28;20190;-38
2022/01/09 06:08:12;;;;;;;1.85;0.60;;;29.50;43.70;;;;;;5066148;28;20634;-38
2022/01/09 06:10:42;;;;;;;0.65;0.50;;;29.50;43.70;;;;;;5067358;28;20281;-42
2022/01/09 06:13:13;;;;;;;0.90;0.40;;;29.50;43.80;;;;;;5070329;28;20301;-38
2022/01/09 06:15:43;;;;;;;1.33;0.50;;;29.50;43.90;;;;;;5069331;28;20283;-41
2022/01/09 06:18:14;;;;;;;0.80;0.40;;;29.50;44.00;;;;;;5069703;28;20234;-39
2022/01/09 06:20:44;;;;;;;0.57;0.40;;;29.40;43.90;;;;;;5070468;28;20309;-43
2022/01/09 06:23:19;;;;;;;0.47;0.32;;;29.40;43.90;;;;;;5070688;28;20325;-39
2022/01/09 06:25:50;;;;;;;0.50;0.50;;;29.40;43.90;;;;;;5070601;28;20194;-49
2022/01/09 06:28:21;;;;;;;0.80;0.50;;;29.40;43.70;;;;;;5069923;28;20293;-44
2022/01/09 06:30:51;;;;;;;1.02;0.47;;;29.40;43.60;;;;;;5068328;28;20240;-42
2022/01/09 06:33:22;;;;;;;0.70;0.50;;;29.40;43.60;;;;;;5065117;28;20218;-38
2022/01/09 06:35:52;;;;;;;0.88;0.40;;;29.30;43.70;;;;;;5069660;28;20289;-38
2022/01/09 06:38:24;;;;;;;0.60;0.50;;;29.30;43.60;;;;;;5070350;28;20294;-38
2022/01/09 06:40:55;;;;;;;0.57;0.40;;;29.30;43.40;;;;;;5071266;28;20281;-38
2022/01/09 06:43:25;;;;;;;0.88;0.47;;;29.20;43.40;;;;;;5069938;28;20303;-38
2022/01/09 06:45:56;;;;;;;0.50;0.38;;;29.20;43.50;;;;;;5070592;28;20628;-39
2022/01/09 06:48:26;;;;;;;1.55;0.50;;;29.20;43.60;;;;;;5062095;28;20624;-41
2022/01/09 06:50:56;;;;;;;1.15;0.60;;;29.20;43.70;;;;;;5070325;28;20285;-38
2022/01/09 06:53:29;;;;;;;0.60;0.30;;;29.20;43.90;;;;;;5069004;28;20253;-38
2022/01/09 06:55:59;;;;;;;0.93;0.50;;;29.10;43.90;;;;;;5067195;28;20287;-41
2022/01/09 06:58:30;;;;;;;0.77;0.40;;;29.10;43.90;;;;;;5072251;28;20292;-38
2022/01/09 07:01:00;;;;;;;0.63;0.40;;;29.10;43.90;;;;;;5068381;28;20234;-39
2022/01/09 07:03:31;;;;;;;0.80;0.40;;;29.10;44.00;;;;;;5070196;28;20250;-38
2022/01/09 07:06:01;;;;;;;0.68;0.40;;;29.10;44.10;;;;;;5069550;28;20290;-38
2022/01/09 07:08:34;;;;;;;1.17;0.40;;;29.10;44.00;;;;;;5059788;28;20282;-38
2022/01/09 07:11:05;;;;;;;1.13;0.40;;;29.00;44.00;;;;;;5069717;28;20195;-39
2022/01/09 07:13:36;;;;;;;0.88;0.47;;;29.00;44.00;;;;;;5068680;28;20637;-38
2022/01/09 07:16:07;;;;;;;0.50;0.32;;;29.00;44.10;;;;;;5068855;28;20749;-42
2022/01/09 07:18:37;;;;;;;0.98;0.35;;;29.00;44.20;;;;;;5069405;28;20291;-39
2022/01/09 07:21:08;;;;;;;1.02;0.40;;;29.00;44.20;;;;;;5070222;28;20286;-40
2022/01/09 07:23:40;;;;;;;1.25;0.43;;;29.00;44.10;;;;;;5064841;28;20337;-45
2022/01/09 07:26:11;;;;;;;1.13;0.40;;;28.90;43.90;;;;;;5069670;28;20286;-38
2022/01/09 07:28:41;;;;;;;0.73;0.30;;;28.90;43.80;;;;;;5070367;28;20206;-42
2022/01/09 07:31:12;;;;;;;2.45;0.50;;;28.90;43.80;;;;;;5066515;28;20285;-38
2022/01/09 07:33:42;;;;;;;1.55;0.47;;;28.90;43.80;;;;;;5069465;28;20776;-41
2022/01/09 07:36:14;;;;;;;3.08;0.90;;;28.80;42.80;;;;;;5068846;28;20282;-41
2022/01/09 07:38:47;;;;;;;2.38;0.70;;;28.80;42.20;;;;;;5069004;28;20206;-40
2022/01/09 07:41:18;;;;;;;5.10;1.00;;;28.70;42.10;;;;;;5068875;28;20305;-39
2022/01/09 07:43:48;;;;;;;1.38;0.60;;;28.60;42.30;;;;;;5068820;28;20310;-41
2022/01/09 07:46:19;;;;;;;2.60;0.80;;;28.60;42.70;;;;;;5068519;28;20210;-43
2022/01/09 07:48:49;;;;;;;0.85;0.60;;;28.60;43.00;;;;;;5067658;28;20234;-48
2022/01/09 07:51:20;;;;;;;1.30;0.68;;;28.60;43.00;;;;;;5069095;28;20274;-38
2022/01/09 07:53:52;;;;;;;1.00;0.70;;;28.60;43.10;;;;;;5067381;28;20297;-40
2022/01/09 07:56:23;;;;;;;1.35;0.70;;;28.60;43.10;;;;;;5068015;28;20286;-39
2022/01/09 07:58:53;;;;;;;3.97;1.00;;;28.50;43.20;;;;;;5068032;28;20286;-39
2022/01/09 08:01:25;;;;;;;1.42;0.70;;;28.50;43.30;;;;;;5063937;28;20314;-44
2022/01/09 08:03:56;;;;;;;2.45;0.65;;;28.50;43.30;;;;;;5061383;28;20243;-40
2022/01/09 08:06:26;;;;;;;1.13;0.80;;;28.50;43.40;;;;;;5067179;28;20305;-38
2022/01/09 08:08:58;;;;;;;2.15;0.60;;;28.50;43.40;;;;;;5067765;28;20302;-40
2022/01/09 08:11:29;;;;;;;4.68;0.75;;;28.40;43.00;;;;;;5069358;28;20718;-38
2022/01/09 08:13:59;;;;;;;2.22;0.57;;;28.40;42.50;;;;;;5069229;28;20294;-38
2022/01/09 08:16:30;;;;;;;1.00;0.40;;;28.30;42.50;;;;;;5068399;28;20285;-38
2022/01/09 08:19:00;;;;;;;0.82;0.60;;;28.30;42.70;;;;;;5069202;28;20281;-42
2022/01/09 08:21:31;;;;;;;1.55;0.60;;;28.20;42.80;;;;;;5067529;28;20289;-38
2022/01/09 08:24:03;;;;;;;1.40;0.50;;;28.20;42.90;;;;;;5065286;28;20309;-38
2022/01/09 08:26:34;;;;;;;1.92;0.60;;;28.20;43.00;;;;;;5065238;28;20278;-38
2022/01/09 08:29:04;;;;;;;1.95;0.57;;;28.10;43.10;;;;;;5065971;28;20289;-38
2022/01/09 08:31:34;;;;;;;2.03;0.65;;;28.10;43.20;;;;;;5065005;28;20281;-38
2022/01/09 08:34:05;;;;;;;1.58;0.70;;;28.10;43.30;;;;;;5068267;28;20257;-44
2022/01/09 08:36:36;;;;;;;1.65;0.60;;;28.00;43.30;;;;;;5067117;28;20658;-39
2022/01/09 08:39:10;;;;;;;0.95;0.55;;;28.00;43.40;;;;;;5068092;28;20734;-51
2022/01/09 08:41:41;;;;;;;1.58;0.75;;;28.00;43.40;;;;;;5067152;28;20237;-39
2022/01/09 08:44:11;;;;;;;0.68;0.50;;;28.00;43.40;;;;;;5067375;28;20657;-47
2022/01/09 08:46:44;;;;;;;0.77;0.60;;;28.00;43.50;;;;;;5066833;28;20286;-38
2022/01/09 08:49:14;;;;;;;0.98;0.50;;;28.00;43.50;;;;;;5065789;28;20273;-46
2022/01/09 08:51:44;;;;;;;0.98;0.40;;;28.00;43.50;;;;;;5067947;28;20194;-45
2022/01/09 08:54:17;;;;;;;1.15;0.40;;;27.90;43.60;;;;;;5067736;28;20298;-40
2022/01/09 08:56:47;;;;;;;1.05;0.40;;;27.90;43.70;;;;;;5067590;28;20286;-43
2022/01/09 08:59:19;;;;;;;1.70;0.73;;;27.90;43.70;;;;;;5067874;28;20199;-44
2022/01/09 09:01:50;;;;;;;1.20;0.60;;;27.90;43.70;;;;;;5068474;28;20194;-49
2022/01/09 09:04:21;;;;;;;1.27;0.60;;;27.90;43.70;;;;;;5066074;28;20544;-46
2022/01/09 09:06:51;;;;;;;1.33;0.60;;;27.80;43.70;;;;;;5065652;28;20322;-50
2022/01/09 09:09:23;;;;;;;1.02;0.60;;;27.80;43.80;;;;;;5066521;28;20230;-40
2022/01/09 09:11:54;;;;;;;1.02;0.60;;;27.80;43.80;;;;;;5066867;28;20287;-45
2022/01/09 09:14:24;;;;;;;0.90;0.47;;;27.80;43.80;;;;;;5066722;28;20315;-46
2022/01/09 09:16:55;;;;;;;0.73;0.50;;;27.80;43.80;;;;;;5066786;28;20290;-41
2022/01/09 09:19:25;;;;;;;1.73;0.60;;;27.70;43.80;;;;;;5063527;28;20294;-38
2022/01/09 09:21:56;;;;;;;0.40;0.40;;;27.70;43.80;;;;;;5067371;28;20233;-48
2022/01/09 09:24:28;;;;;;;0.82;0.50;;;27.70;43.80;;;;;;5056911;28;20281;-47
2022/01/09 09:26:59;;;;;;;0.95;0.50;;;27.70;43.90;;;;;;5067124;28;20195;-38
2022/01/09 09:29:30;;;;;;;1.10;0.60;;;27.60;43.90;;;;;;5065580;28;20256;-50
2022/01/09 09:32:00;;;;;;;1.33;0.50;;;27.60;43.90;;;;;;5062114;28;20285;-38
2022/01/09 09:34:31;;;;;;;0.40;0.40;;;27.60;44.00;;;;;;5066548;28;20286;-41
2022/01/09 09:37:01;;;;;;;0.90;0.57;;;27.60;44.10;;;;;;5063679;28;20223;-38
2022/01/09 09:39:35;;;;;;;1.05;0.40;;;27.60;44.00;;;;;;5066483;28;20237;-38
2022/01/09 09:42:06;;;;;;;0.98;0.65;;;27.50;44.00;;;;;;5066852;28;20206;-49
2022/01/09 09:44:38;;;;;;;0.95;0.50;;;27.50;44.10;;;;;;5065016;28;20274;-42
2022/01/09 09:47:11;;;;;;;0.30;0.30;;;27.50;44.10;;;;;;5062557;28;20194;-55
2022/01/09 09:49:41;;;;;;;0.85;0.60;;;27.50;44.10;;;;;;5067283;28;20290;-47
2022/01/09 09:52:15;;;;;;;0.38;0.35;;;27.40;44.10;;;;;;5065355;28;20321;-38
2022/01/09 09:54:47;;;;;;;0.95;0.52;;;27.40;44.10;;;;;;5065792;28;20198;-38
2022/01/09 09:57:18;;;;;;;1.63;0.68;;;27.40;44.10;;;;;;5067164;28;20631;-39
2022/01/09 09:59:48;;;;;;;0.70;0.40;;;27.40;44.20;;;;;;5066960;28;20710;-45
2022/01/09 10:02:20;;;;;;;0.75;0.50;;;27.40;44.20;;;;;;5064823;28;20309;-38
2022/01/09 10:05:05;;;;;;;0.77;0.50;;;27.30;44.20;;;;;;5066574;28;20301;-38
2022/01/09 10:07:36;;;;;;;1.17;0.50;;;27.30;44.20;;;;;;5065136;28;20233;-38
2022/01/09 10:10:11;;;;;;;0.82;0.50;;;27.30;44.30;;;;;;5067547;28;20642;-38
2022/01/09 10:12:41;;;;;;;0.73;0.50;;;27.20;44.30;;;;;;5067178;28;20297;-43
2022/01/09 10:15:14;;;;;;;1.52;0.50;;;27.20;44.40;;;;;;5053356;28;20639;-38
2022/01/09 10:17:46;;;;;;;1.02;0.47;;;27.20;44.40;;;;;;5065521;28;20281;-51
2022/01/09 10:20:18;;;;;;;1.83;0.57;;;27.10;44.30;;;;;;5063469;28;20305;-39
2022/01/09 10:22:49;;;;;;;0.80;0.40;;;27.10;44.40;;;;;;5060013;28;20316;-38
2022/01/09 10:25:28;;;;;;;0.45;0.45;;;27.10;44.40;;;;;;5066845;28;20277;-47
2022/01/09 10:28:04;;;;;;;1.33;0.60;;;27.00;44.40;;;;;;5067083;28;20637;-38
2022/01/09 10:30:40;;;;;;;0.45;0.45;;;27.00;44.40;;;;;;5066006;28;20277;-48
2022/01/09 10:33:12;;;;;;;1.48;0.70;;;27.00;44.40;;;;;;5066305;28;20233;-46
2022/01/09 10:35:44;;;;;;;1.10;0.50;;;26.90;44.40;;;;;;5066830;28;20203;-51
2022/01/09 10:38:21;;;;;;;0.85;0.43;;;26.90;44.50;;;;;;5067367;28;20270;-38
2022/01/09 10:40:57;;;;;;;1.25;0.40;;;26.90;44.50;;;;;;5062477;28;20276;-38
2022/01/09 10:43:28;;;;;;;1.13;0.65;;;26.90;44.60;;;;;;5066422;28;20737;-38
2022/01/09 10:46:00;;;;;;;0.43;0.40;;;26.80;44.60;;;;;;5066532;28;20253;-38
2022/01/09 10:48:38;;;;;;;0.82;0.43;;;26.80;44.60;;;;;;5065829;28;20234;-38
2022/01/09 10:51:09;;;;;;;0.50;0.40;;;26.80;44.70;;;;;;5065853;28;20603;-45
2022/01/09 10:53:41;;;;;;;0.77;0.50;;;26.80;44.70;;;;;;5066358;28;21520;-41
2022/01/09 10:56:16;;;;;;;0.50;0.40;;;26.70;44.60;;;;;;5066743;28;20294;-45
2022/01/09 10:58:49;;;;;;;0.73;0.50;;;26.70;44.70;;;;;;5066858;28;20220;-47
2022/01/09 11:01:25;;;;;;;1.23;0.50;;;26.70;44.80;;;;;;5067261;28;20301;-41
2022/01/09 11:03:57;;;;;;;1.00;0.45;;;26.60;44.70;;;;;;5066030;28;20217;-39
2022/01/09 11:06:30;;;;;;;0.60;0.40;;;26.60;44.80;;;;;;5057442;28;20287;-38
2022/01/09 11:09:02;;;;;;;0.60;0.40;;;26.50;44.70;;;;;;5069286;28;20199;-41
2022/01/09 11:11:37;;;;;;;0.52;0.40;;;26.50;44.70;;;;;;5069778;28;20217;-48
2022/01/09 11:14:11;;;;;;;0.80;0.50;;;26.50;44.80;;;;;;5069630;28;20245;-40
2022/01/09 11:16:51;;;;;;;0.80;0.47;;;26.40;44.80;;;;;;5069786;28;20198;-37
2022/01/09 11:19:23;;;;;;;1.52;0.60;;;26.40;44.80;;;;;;5059934;28;20659;-41
2022/01/09 11:21:55;;;;;;;0.93;0.43;;;26.40;44.80;;;;;;5067453;28;20227;-37
2022/01/09 11:25:12;;;;;;;0.65;0.45;;;26.40;44.90;;;;;;5066796;28;20283;-38
2022/01/09 11:27:56;;;;;;;0.50;0.32;;;26.40;44.90;;;;;;5007087;28;20215;-38
2022/01/09 11:30:47;;;;;;;0.30;0.30;;;26.30;44.80;;;;;;5006748;28;20861;-38
2022/01/09 11:33:44;;;;;;;0.50;0.50;;;26.30;44.90;;;;;;5057687;28;20214;-41
2022/01/09 11:36:21;;;;;;;0.43;0.30;;;26.30;45.00;;;;;;5068543;28;20203;-50
2022/01/09 11:39:00;;;;;;;0.65;0.40;;;26.20;44.90;;;;;;5068865;28;20628;-48
2022/01/09 11:41:33;;;;;;;0.60;0.40;;;26.20;45.00;;;;;;5069198;28;20706;-48
2022/01/09 11:44:08;;;;;;;0.82;0.40;;;26.20;45.00;;;;;;5062335;28;20281;-38
2022/01/09 11:46:59;;;;;;;1.08;0.40;;;26.10;45.00;;;;;;5064462;28;20206;-38
2022/01/09 11:49:32;;;;;;;0.40;0.40;;;26.10;45.00;;;;;;5064755;28;20208;-39
2022/01/09 11:52:03;;;;;;;0.52;0.50;;;26.10;45.10;;;;;;5063407;28;20206;-46
2022/01/09 11:54:50;;;;;;;0.30;0.30;;;26.00;45.10;;;;;;5059976;28;20250;-38
2022/01/09 11:57:38;;;;;;;0.45;0.40;;;26.00;45.10;;;;;;5061210;28;20278;-37
2022/01/09 12:00:29;;;;;;;0.47;0.40;;;26.00;45.10;;;;;;5056203;28;20199;-38
2022/01/09 12:03:00;;;;;;;0.50;0.50;;;26.00;45.10;;;;;;5061550;28;20237;-49
2022/01/09 12:05:31;;;;;;;0.55;0.30;;;26.00;45.10;;;;;;5068585;28;20290;-38
2022/01/09 12:08:08;;;;;;;0.95;0.50;;;25.90;45.10;;;;;;5062577;28;20195;-46
2022/01/09 12:10:54;;;;;;;0.45;0.40;;;25.90;45.10;;;;;;5057884;28;20588;-39
2022/01/09 12:13:51;;;;;;;0.60;0.40;;;25.90;45.10;;;;;;5060616;28;20581;-38
2022/01/09 12:16:49;;;;;;;0.35;0.32;;;25.80;45.10;;;;;;5063009;28;20241;-38
2022/01/09 12:19:55;;;;;;;0.47;0.40;;;25.80;45.10;;;;;;5056033;28;20716;-39
2022/01/09 12:23:04;;;;;;;1.20;0.68;;;25.80;45.10;;;;;;5056137;28;20235;-43
2022/01/09 12:25:57;;;;;;;0.50;0.40;;;25.80;45.20;;;;;;5025122;28;20288;-44
2022/01/09 12:28:46;;;;;;;0.68;0.52;;;25.80;45.20;;;;;;5056004;28;20198;-38
2022/01/09 12:31:31;;;;;;;0.80;0.40;;;25.70;45.30;;;;;;5052662;28;20198;-40
2022/01/09 12:34:12;;;;;;;0.40;0.30;;;25.70;45.30;;;;;;5070009;28;20250;-40
2022/01/09 12:36:43;;;;;;;0.60;0.40;;;25.70;45.30;;;;;;5069816;28;20716;-38
2022/01/09 12:39:17;;;;;;;0.68;0.40;;;25.60;45.30;;;;;;5066947;28;20202;-43
2022/01/09 12:41:48;;;;;;;1.38;0.50;;;25.60;45.30;;;;;;5068403;28;20262;-47
2022/01/09 12:44:18;;;;;;;0.40;0.40;;;25.60;45.40;;;;;;5067401;28;20278;-38
2022/01/09 12:46:49;;;;;;;0.60;0.50;;;25.50;45.30;;;;;;5068237;28;20282;-39
2022/01/09 12:49:22;;;;;;;0.50;0.43;;;25.50;45.30;;;;;;5069916;28;20283;-39
2022/01/09 12:52:00;;;;;;;0.40;0.40;;;25.50;45.30;;;;;;5057422;28;20706;-41
2022/01/09 12:54:30;;;;;;;0.40;0.40;;;25.50;45.30;;;;;;5064010;28;20234;-45
2022/01/09 12:57:04;;;;;;;0.70;0.45;;;25.50;45.30;;;;;;5067960;28;20724;-42
2022/01/09 12:59:35;;;;;;;0.40;0.40;;;25.50;46.00;;;;;;5065584;28;20279;-45
2022/01/09 13:02:12;;;;;;;0.98;0.50;;;25.50;45.40;;;;;;5064570;28;20302;-38
2022/01/09 13:04:44;;;;;;;0.73;0.35;;;25.40;45.30;;;;;;5058267;28;20198;-39
2022/01/09 13:07:32;;;;;;;0.82;0.50;;;25.40;45.30;;;;;;5066464;28;20843;-44
2022/01/09 13:10:15;;;;;;;0.60;0.43;;;25.40;45.40;;;;;;5065528;28;20741;-40
2022/01/09 13:13:03;;;;;;;0.43;0.35;;;25.40;45.40;;;;;;5065329;28;20250;-40
2022/01/09 13:15:38;;;;;;;0.75;0.40;;;25.40;45.40;;;;;;5066702;28;20278;-39
2022/01/09 13:18:08;;;;;;;0.80;0.40;;;25.30;45.40;;;;;;5067575;28;20293;-38